createdAt,value
2019-01-21T00:01:24.989Z,3.47
2019-01-21T00:03:58.337Z,3.33
2019-01-21T00:06:28.065Z,5.27
2019-01-21T00:09:00.063Z,1.70
2019-01-21T00:11:30.117Z,2.40
2019-01-21T00:13:59.870Z,3.77
2019-01-21T00:16:30.807Z,2.50
2019-01-21T00:19:08.515Z,2.80
2019-01-21T00:21:40.537Z,2.77
2019-01-21T00:24:11.221Z,4.47
2019-01-21T00:26:41.360Z,3.20
2019-01-21T00:29:12.140Z,2.80
2019-01-21T00:31:41.824Z,2.07
2019-01-21T00:34:13.058Z,2.87
2019-01-21T00:36:42.804Z,2.30
2019-01-21T00:39:14.432Z,3.47
2019-01-21T00:41:43.920Z,2.93
2019-01-21T00:44:13.398Z,2.47
2019-01-21T00:46:49.204Z,3.77
2019-01-21T00:49:18.886Z,3.37
2019-01-21T00:51:48.449Z,2.80
2019-01-21T00:54:26.699Z,4.23
2019-01-21T00:56:56.614Z,3.33
2019-01-21T00:59:32.492Z,5.73
2019-01-21T01:02:02.921Z,4.93
2019-01-21T01:04:32.984Z,2.53
2019-01-21T01:07:03.449Z,3.10
2019-01-21T01:09:33.548Z,3.57
2019-01-21T01:12:03.244Z,2.17
2019-01-21T01:14:32.920Z,2.20
2019-01-21T01:17:03.230Z,4.83
2019-01-21T01:19:35.572Z,2.50
2019-01-21T01:22:07.331Z,3.63
2019-01-21T01:24:37.291Z,2.40
2019-01-21T01:27:08.582Z,4.63
2019-01-21T01:29:38.346Z,2.87
2019-01-21T01:32:07.804Z,3.07
2019-01-21T01:34:38.968Z,2.03
2019-01-21T01:37:08.894Z,3.07
2019-01-21T01:39:38.402Z,3.73
2019-01-21T01:42:09.548Z,2.30
2019-01-21T01:44:39.692Z,2.17
2019-01-21T01:47:09.149Z,4.03
2019-01-21T01:49:41.470Z,3.97
2019-01-21T01:52:13.627Z,3.27
2019-01-21T01:54:43.144Z,4.07
2019-01-21T01:57:14.713Z,4.42
2019-01-21T01:59:46.291Z,4.03
2019-01-21T02:02:18.170Z,2.80
2019-01-21T02:04:50.548Z,2.40
2019-01-21T02:07:20.398Z,3.60
2019-01-21T02:09:50.670Z,4.17
2019-01-21T02:12:20.871Z,1.25
2019-01-21T02:14:50.470Z,3.77
2019-01-21T02:17:20.710Z,3.63
2019-01-21T02:19:54.422Z,2.92
2019-01-21T02:22:27.543Z,2.20
2019-01-21T02:25:02.507Z,3.47
2019-01-21T02:27:55.156Z,4.92
2019-01-21T02:31:07.838Z,3.90
2019-01-21T02:34:20.298Z,3.27
2019-01-21T02:37:33.159Z,3.45
2019-01-21T02:40:24.250Z,2.25
2019-01-21T02:43:28.157Z,1.52
2019-01-21T02:46:30.202Z,4.35
2019-01-21T02:49:42.160Z,2.02
2019-01-21T02:52:55.826Z,2.45
2019-01-21T02:55:58.060Z,2.45
2019-01-21T02:58:56.973Z,1.52
2019-01-21T03:02:12.547Z,2.55
2019-01-21T03:05:17.947Z,2.75
2019-01-21T03:08:21.046Z,3.10
2019-01-21T03:11:29.594Z,1.67
2019-01-21T03:14:11.710Z,2.67
2019-01-21T03:17:31.173Z,1.82
2019-01-21T03:20:29.498Z,3.12
2019-01-21T03:23:51.930Z,2.12
2019-01-21T03:27:11.796Z,2.37
2019-01-21T03:30:20.976Z,2.83
2019-01-21T03:33:40.539Z,2.65
2019-01-21T03:36:43.343Z,1.40
2019-01-21T03:39:48.694Z,2.95
2019-01-21T03:42:55.623Z,2.80
2019-01-21T03:46:08.702Z,1.75
2019-01-21T03:48:43.931Z,4.00
2019-01-21T03:51:55.135Z,3.60
2019-01-21T03:54:38.942Z,2.00
2019-01-21T03:57:57.514Z,1.37
2019-01-21T04:00:39.823Z,2.10
2019-01-21T04:04:05.785Z,2.95
2019-01-21T04:06:55.884Z,2.98
2019-01-21T04:10:15.655Z,3.70
2019-01-21T04:13:24.372Z,2.65
2019-01-21T04:16:17.550Z,2.20
2019-01-21T04:19:31.524Z,2.05
2019-01-21T04:22:27.662Z,1.60
2019-01-21T04:25:29.504Z,2.02
2019-01-21T04:28:07.537Z,3.22
2019-01-21T04:31:21.666Z,1.12
2019-01-21T04:34:24.864Z,3.87
2019-01-21T04:37:22.905Z,2.72
2019-01-21T04:40:38.931Z,2.65
2019-01-21T04:43:31.222Z,2.60
2019-01-21T04:46:35.959Z,2.98
2019-01-21T04:50:04.764Z,2.10
2019-01-21T04:53:03.724Z,2.72
2019-01-21T04:56:11.917Z,3.08
2019-01-21T04:59:18.533Z,3.45
2019-01-21T05:02:13.731Z,2.35
2019-01-21T05:04:59.041Z,3.45
2019-01-21T05:08:12.047Z,3.45
2019-01-21T05:11:23.511Z,2.67
2019-01-21T05:14:33.406Z,1.87
2019-01-21T05:17:26.975Z,1.98
2019-01-21T05:20:36.462Z,2.25
2019-01-21T05:23:41.752Z,1.70
2019-01-21T05:26:36.251Z,2.72
2019-01-21T05:29:41.758Z,2.12
2019-01-21T05:33:03.346Z,2.90
2019-01-21T05:36:11.222Z,1.12
2019-01-21T05:39:22.003Z,2.80
2019-01-21T05:42:41.504Z,1.65
2019-01-21T05:45:43.194Z,1.90
2019-01-21T05:48:54.602Z,3.67
2019-01-21T05:52:03.544Z,1.67
2019-01-21T05:55:06.806Z,0.82
2019-01-21T05:58:28.291Z,3.77
2019-01-21T06:01:50.698Z,5.62
2019-01-21T06:04:55.667Z,1.60
2019-01-21T06:07:35.828Z,3.25
2019-01-21T06:10:38.913Z,2.67
2019-01-21T06:13:25.050Z,4.00
2019-01-21T06:16:28.943Z,1.92
2019-01-21T06:19:37.364Z,1.82
2019-01-21T06:22:49.680Z,2.27
2019-01-21T06:25:54.776Z,1.72
2019-01-21T06:28:53.230Z,2.98
2019-01-21T06:31:46.684Z,3.02
2019-01-21T06:34:57.384Z,2.10
2019-01-21T06:38:10.202Z,1.55
2019-01-21T06:41:23.665Z,1.50
2019-01-21T06:44:23.882Z,2.12
2019-01-21T06:47:46.442Z,2.37
2019-01-21T06:51:05.697Z,1.80
2019-01-21T06:54:01.628Z,1.65
2019-01-21T06:57:07.766Z,1.22
2019-01-21T07:00:29.222Z,3.20
2019-01-21T07:03:43.691Z,2.15
2019-01-21T07:07:12.036Z,2.90
2019-01-21T07:10:25.483Z,3.35
2019-01-21T07:13:25.463Z,2.65
2019-01-21T07:16:38.715Z,2.85
2019-01-21T07:19:46.349Z,3.42
2019-01-21T07:23:03.182Z,1.87
2019-01-21T07:26:22.725Z,2.98
2019-01-21T07:29:27.975Z,3.98
2019-01-21T07:32:17.240Z,1.40
2019-01-21T07:35:03.782Z,2.77
2019-01-21T07:37:46.553Z,1.32
2019-01-21T07:40:38.235Z,2.75
2019-01-21T07:43:30.223Z,4.28
2019-01-21T07:46:26.790Z,4.05
2019-01-21T07:49:33.504Z,3.67
2019-01-21T07:52:32.786Z,3.92
2019-01-21T07:55:30.722Z,3.33
2019-01-21T07:58:44.229Z,4.58
2019-01-21T08:01:46.644Z,2.47
2019-01-21T08:04:38.044Z,2.37
2019-01-21T08:07:26.112Z,3.53
2019-01-21T08:10:35.181Z,2.23
2019-01-21T08:13:43.108Z,3.83
2019-01-21T08:16:30.722Z,2.30
2019-01-21T08:19:25.289Z,2.50
2019-01-21T08:22:47.997Z,4.27
2019-01-21T08:26:11.997Z,3.27
2019-01-21T08:29:40.590Z,3.00
2019-01-21T08:32:46.227Z,3.13
2019-01-21T08:36:04.742Z,5.97
2019-01-21T08:39:17.181Z,3.27
2019-01-21T08:42:39.929Z,3.67
2019-01-21T08:45:36.587Z,5.17
2019-01-21T08:48:32.154Z,4.73
2019-01-21T08:51:25.499Z,2.70
2019-01-21T08:54:26.917Z,3.17
2019-01-21T08:57:33.242Z,3.27
2019-01-21T09:00:25.623Z,4.77
2019-01-21T09:03:51.005Z,4.63
2019-01-21T09:06:37.085Z,5.43
2019-01-21T09:09:37.310Z,4.83
2019-01-21T09:12:41.933Z,4.90
2019-01-21T09:15:52.296Z,5.73
2019-01-21T09:19:14.631Z,5.30
2019-01-21T09:22:13.103Z,5.30
2019-01-21T09:24:59.831Z,8.40
2019-01-21T09:28:09.111Z,4.20
2019-01-21T09:31:28.535Z,5.20
2019-01-21T09:34:15.270Z,5.17
2019-01-21T09:37:37.920Z,6.57
2019-01-21T09:40:32.341Z,8.13
2019-01-21T09:43:38.522Z,9.67
2019-01-21T09:46:50.782Z,8.30
2019-01-21T09:49:18.581Z,7.60
2019-01-21T09:51:57.387Z,7.50
2019-01-21T09:54:28.089Z,7.97
2019-01-21T09:56:58.886Z,9.57
2019-01-21T09:59:28.387Z,7.87
2019-01-21T10:02:00.359Z,8.10
2019-01-21T10:04:58.422Z,9.60
2019-01-21T10:07:58.264Z,7.83
2019-01-21T10:11:07.650Z,9.27
2019-01-21T10:14:12.205Z,10.80
2019-01-21T10:17:11.337Z,7.57
2019-01-21T10:20:17.411Z,8.13
2019-01-21T10:23:21.178Z,9.97
2019-01-21T10:26:25.252Z,9.70
2019-01-21T10:29:17.441Z,9.90
2019-01-21T10:32:33.997Z,7.80
2019-01-21T10:35:35.101Z,9.70
2019-01-21T10:38:41.430Z,7.20
2019-01-21T10:41:50.838Z,9.17
2019-01-21T10:44:32.798Z,8.53
2019-01-21T10:47:39.820Z,8.97
2019-01-21T10:50:41.889Z,8.50
2019-01-21T10:53:36.785Z,6.30
2019-01-21T10:56:33.783Z,12.60
2019-01-21T10:59:40.269Z,11.00
2019-01-21T11:02:51.454Z,10.17
2019-01-21T11:06:08.101Z,10.70
2019-01-21T11:09:33.210Z,9.17
2019-01-21T11:12:39.033Z,10.80
2019-01-21T11:15:59.045Z,8.70
2019-01-21T11:19:07.765Z,10.13
2019-01-21T11:22:16.822Z,11.93
2019-01-21T11:25:36.214Z,8.33
2019-01-21T11:28:13.697Z,9.53
2019-01-21T11:31:46.122Z,10.77
2019-01-21T11:35:08.642Z,10.27
2019-01-21T11:38:07.803Z,11.80
2019-01-21T11:41:30.702Z,12.73
2019-01-21T11:44:25.957Z,11.00
2019-01-21T11:47:35.342Z,10.67
2019-01-21T11:50:26.993Z,10.07
2019-01-21T11:53:33.352Z,11.87
2019-01-21T11:56:26.738Z,10.53
2019-01-21T11:59:34.270Z,8.90
2019-01-21T12:02:59.938Z,11.97
2019-01-21T12:05:43.822Z,10.27
2019-01-21T12:08:51.136Z,10.93
2019-01-21T12:11:44.252Z,10.33
2019-01-21T12:15:03.536Z,14.73
2019-01-21T12:18:12.622Z,11.77
2019-01-21T12:21:13.536Z,10.97
2019-01-21T12:24:10.594Z,9.83
2019-01-21T12:27:27.022Z,11.37
2019-01-21T12:30:36.442Z,10.10
2019-01-21T12:33:48.434Z,9.73
2019-01-21T12:36:56.499Z,11.23
2019-01-21T12:39:55.464Z,10.93
2019-01-21T12:43:30.034Z,10.87
2019-01-21T12:46:40.234Z,12.10
2019-01-21T12:49:40.025Z,12.67
2019-01-21T12:52:44.224Z,10.77
2019-01-21T12:55:51.792Z,12.43
2019-01-21T12:58:42.466Z,11.90
2019-01-21T13:01:58.586Z,9.57
2019-01-21T13:04:52.354Z,12.87
2019-01-21T13:08:08.481Z,9.87
2019-01-21T13:10:59.594Z,10.57
2019-01-21T13:14:07.014Z,11.20
2019-01-21T13:16:50.626Z,11.00
2019-01-21T13:19:50.078Z,13.00
2019-01-21T13:22:51.609Z,8.87
2019-01-21T13:25:59.218Z,10.50
2019-01-21T13:28:39.602Z,11.63
2019-01-21T13:31:36.502Z,9.60
2019-01-21T13:34:48.946Z,10.07
2019-01-21T13:37:53.905Z,11.77
2019-01-21T13:41:32.022Z,8.97
2019-01-21T13:45:03.845Z,9.07
2019-01-21T13:48:02.685Z,10.60
2019-01-21T13:50:54.656Z,12.17
2019-01-21T13:53:47.238Z,10.03
2019-01-21T13:56:28.094Z,12.23
2019-01-21T13:59:44.032Z,12.10
2019-01-21T14:02:23.653Z,10.10
2019-01-21T14:05:22.160Z,12.63
2019-01-21T14:08:28.413Z,13.50
2019-01-21T14:11:21.949Z,10.40
2019-01-21T14:14:08.220Z,8.73
2019-01-21T14:17:09.476Z,10.73
2019-01-21T14:20:19.838Z,12.77
2019-01-21T14:23:27.414Z,12.93
2019-01-21T14:26:30.014Z,11.73
2019-01-21T14:29:24.644Z,10.50
2019-01-21T14:32:40.414Z,9.37
2019-01-21T14:36:00.570Z,13.20
2019-01-21T14:39:25.677Z,12.03
2019-01-21T14:42:23.780Z,10.23
2019-01-21T14:45:33.125Z,11.13
2019-01-21T14:48:31.201Z,8.97
2019-01-21T14:51:17.433Z,11.03
2019-01-21T14:54:12.823Z,10.30
2019-01-21T14:57:04.850Z,12.77
2019-01-21T15:00:20.100Z,11.57
2019-01-21T15:03:09.688Z,11.63
2019-01-21T15:06:14.593Z,11.77
2019-01-21T15:08:59.689Z,12.87
2019-01-21T15:11:52.998Z,17.50
2019-01-21T15:15:01.797Z,15.97
2019-01-21T15:18:08.093Z,18.33
2019-01-21T15:21:07.544Z,17.33
2019-01-21T15:24:30.469Z,15.37
2019-01-21T15:27:32.447Z,15.67
2019-01-21T15:30:29.586Z,17.57
2019-01-21T15:33:26.231Z,18.53
2019-01-21T15:36:39.568Z,11.53
2019-01-21T15:39:36.683Z,11.60
2019-01-21T15:42:48.621Z,14.90
2019-01-21T15:45:50.813Z,10.43
2019-01-21T15:49:00.091Z,15.37
2019-01-21T15:51:54.182Z,10.23
2019-01-21T15:55:22.753Z,9.77
2019-01-21T15:58:24.321Z,9.90
2019-01-21T16:01:32.038Z,12.87
2019-01-21T16:04:47.721Z,6.47
2019-01-21T16:07:32.797Z,8.40
2019-01-21T16:10:52.005Z,11.13
2019-01-21T16:13:54.190Z,10.47
2019-01-21T16:16:52.196Z,9.27
2019-01-21T16:19:51.211Z,11.00
2019-01-21T16:22:57.446Z,9.87
2019-01-21T16:25:43.962Z,8.53
2019-01-21T16:28:52.131Z,10.00
2019-01-21T16:32:00.638Z,8.83
2019-01-21T16:35:17.091Z,11.47
2019-01-21T16:38:20.227Z,8.60
2019-01-21T16:41:32.423Z,8.37
2019-01-21T16:44:02.286Z,11.13
2019-01-21T16:46:31.626Z,10.03
2019-01-21T16:49:02.320Z,11.43
2019-01-21T16:51:31.670Z,9.63
2019-01-21T16:54:02.258Z,9.70
2019-01-21T16:56:31.598Z,10.23
2019-01-21T16:59:02.400Z,11.37
2019-01-21T17:01:31.803Z,10.57
2019-01-21T17:04:02.436Z,8.00
2019-01-21T17:06:31.879Z,15.23
2019-01-21T17:09:02.260Z,13.27
2019-01-21T17:11:31.594Z,9.53
2019-01-21T17:14:03.310Z,11.07
2019-01-21T17:16:32.708Z,8.07
2019-01-21T17:19:03.429Z,11.93
2019-01-21T17:21:32.823Z,9.37
2019-01-21T17:24:02.266Z,9.93
2019-01-21T17:26:31.595Z,9.10
2019-01-21T17:29:03.009Z,10.93
2019-01-21T17:31:32.354Z,9.43
2019-01-21T17:34:03.452Z,9.20
2019-01-21T17:36:32.798Z,11.67
2019-01-21T17:39:03.487Z,8.90
2019-01-21T17:41:32.837Z,8.27
2019-01-21T17:44:02.216Z,9.60
2019-01-21T17:46:31.662Z,9.97
2019-01-21T17:49:02.942Z,7.70
2019-01-21T17:51:34.337Z,10.60
2019-01-21T17:54:03.456Z,11.73
2019-01-21T17:56:32.779Z,8.47
2019-01-21T17:59:02.229Z,8.60
2019-01-21T18:01:31.640Z,8.40
2019-01-21T18:04:02.530Z,8.27
2019-01-21T18:06:31.851Z,11.40
2019-01-21T18:09:02.381Z,10.27
2019-01-21T18:11:31.726Z,6.67
2019-01-21T18:14:02.423Z,10.37
2019-01-21T18:16:31.860Z,7.40
2019-01-21T18:19:03.175Z,9.77
2019-01-21T18:21:32.517Z,11.57
2019-01-21T18:24:03.890Z,10.73
2019-01-21T18:26:33.270Z,5.20
2019-01-21T18:29:03.222Z,7.93
2019-01-21T18:31:32.632Z,11.57
2019-01-21T18:34:03.047Z,8.67
2019-01-21T18:36:32.398Z,8.57
2019-01-21T18:39:03.290Z,7.73
2019-01-21T18:41:32.628Z,9.83
2019-01-21T18:44:02.400Z,10.40
2019-01-21T18:46:31.742Z,9.03
2019-01-21T18:49:02.952Z,9.63
2019-01-21T18:51:32.302Z,7.87
2019-01-21T18:54:02.988Z,7.10
2019-01-21T18:56:32.413Z,9.30
2019-01-21T18:59:03.020Z,12.03
2019-01-21T19:01:32.458Z,7.43
2019-01-21T19:04:02.870Z,5.83
2019-01-21T19:06:32.222Z,6.03
2019-01-21T19:09:03.758Z,9.57
2019-01-21T19:11:33.286Z,8.70
2019-01-21T19:14:02.974Z,9.93
2019-01-21T19:16:32.460Z,12.53
2019-01-21T19:19:02.028Z,7.97
2019-01-21T19:21:31.575Z,9.53
2019-01-21T19:24:00.991Z,9.57
2019-01-21T19:26:30.520Z,8.63
2019-01-21T19:29:00.068Z,10.70
2019-01-21T19:31:29.556Z,8.20
2019-01-21T19:33:58.954Z,9.03
2019-01-21T19:36:28.428Z,6.83
2019-01-21T19:38:57.861Z,7.00
2019-01-21T19:41:27.300Z,6.63
2019-01-21T19:43:56.672Z,8.80
2019-01-21T19:46:26.086Z,8.33
2019-01-21T19:48:55.467Z,7.20
2019-01-21T19:51:24.882Z,7.53
2019-01-21T19:53:54.266Z,6.72
2019-01-21T19:56:23.706Z,8.20
2019-01-21T19:58:54.400Z,7.73
2019-01-21T20:01:23.850Z,4.97
2019-01-21T20:03:53.204Z,8.37
2019-01-21T20:06:22.598Z,6.22
2019-01-21T20:08:51.964Z,9.15
2019-01-21T20:11:21.476Z,7.60
2019-01-21T20:13:50.887Z,6.40
2019-01-21T20:16:20.290Z,7.57
2019-01-21T20:18:49.686Z,7.40
2019-01-21T20:21:19.186Z,9.25
2019-01-21T20:23:48.599Z,6.70
2019-01-21T20:26:18.046Z,7.23
2019-01-21T20:28:47.406Z,9.05
2019-01-21T20:31:16.802Z,8.30
2019-01-21T20:33:52.041Z,6.70
2019-01-21T20:36:17.290Z,6.60
2019-01-21T20:38:46.746Z,10.10
2019-01-21T20:41:16.143Z,10.53
2019-01-21T20:43:45.602Z,6.28
2019-01-21T20:46:15.000Z,6.65
2019-01-21T20:48:44.450Z,6.90
2019-01-21T20:51:13.916Z,10.28
2019-01-21T20:53:43.348Z,7.67
2019-01-21T20:56:15.776Z,7.30
2019-01-21T20:58:45.210Z,6.28
2019-01-21T21:01:16.168Z,7.53
2019-01-21T21:03:45.814Z,9.68
2019-01-21T21:06:15.344Z,5.58
2019-01-21T21:08:44.788Z,7.92
2019-01-21T21:11:14.222Z,6.97
2019-01-21T21:13:43.634Z,6.53
2019-01-21T21:16:13.093Z,9.25
2019-01-21T21:18:42.430Z,5.65
2019-01-21T21:21:11.799Z,7.22
2019-01-21T21:23:41.131Z,6.97
2019-01-21T21:26:10.505Z,5.75
2019-01-21T21:28:39.954Z,8.35
2019-01-21T21:31:09.422Z,9.28
2019-01-21T21:33:38.886Z,7.75
2019-01-21T21:36:08.474Z,7.83
2019-01-21T21:38:39.038Z,7.20
2019-01-21T21:41:08.530Z,9.50
2019-01-21T21:43:37.962Z,6.15
2019-01-21T21:46:07.447Z,6.58
2019-01-21T21:48:36.840Z,5.53
2019-01-21T21:51:08.858Z,7.58
2019-01-21T21:53:38.280Z,7.05
2019-01-21T21:56:07.870Z,5.67
2019-01-21T21:58:39.812Z,5.30
2019-01-21T22:01:09.340Z,5.97
2019-01-21T22:03:38.709Z,9.58
2019-01-21T22:06:08.805Z,8.95
2019-01-21T22:08:38.230Z,5.60
2019-01-21T22:11:07.697Z,5.22
2019-01-21T22:13:37.129Z,7.72
2019-01-21T22:16:06.600Z,8.50
2019-01-21T22:18:36.080Z,7.60
2019-01-21T22:21:05.558Z,5.67
2019-01-21T22:23:34.990Z,10.55
2019-01-21T22:26:04.549Z,6.60
2019-01-21T22:28:33.968Z,5.30
2019-01-21T22:31:03.428Z,6.70
2019-01-21T22:33:32.848Z,7.92
2019-01-21T22:36:03.282Z,5.65
2019-01-21T22:38:32.772Z,8.23
2019-01-21T22:41:02.963Z,7.42
2019-01-21T22:43:32.394Z,8.75
2019-01-21T22:46:02.969Z,8.30
2019-01-21T22:48:32.387Z,7.20
2019-01-21T22:51:03.801Z,8.65
2019-01-21T22:53:33.270Z,10.48
2019-01-21T22:56:02.844Z,7.15
2019-01-21T22:58:32.264Z,7.10
2019-01-21T23:01:21.189Z,8.23
2019-01-21T23:03:50.927Z,9.48
2019-01-21T23:06:20.423Z,7.78
2019-01-21T23:08:49.867Z,7.17
2019-01-21T23:11:19.314Z,9.08
2019-01-21T23:13:48.738Z,7.55
2019-01-21T23:16:18.818Z,6.40
2019-01-21T23:18:48.985Z,5.80
2019-01-21T23:21:18.446Z,4.75
2019-01-21T23:23:47.939Z,5.15
2019-01-21T23:26:17.350Z,9.43
2019-01-21T23:28:47.341Z,5.35
2019-01-21T23:31:16.830Z,9.58
2019-01-21T23:33:46.254Z,9.20
2019-01-21T23:36:15.696Z,6.15
2019-01-21T23:38:45.166Z,7.20
2019-01-21T23:41:14.684Z,8.78
2019-01-21T23:43:44.168Z,8.10
2019-01-21T23:46:13.630Z,6.12
2019-01-21T23:48:45.022Z,6.42
2019-01-21T23:51:14.161Z,9.68
2019-01-21T23:53:43.634Z,7.65
2019-01-21T23:56:13.042Z,8.45
2019-01-21T23:58:42.443Z,6.42
